YMLT Airport Information

Runway Information
Runway 14L Length 2297 ft width 60 ft
Elevation 535 ft Threshold 0 ft Heading 147
Runway 32R Length 2297 ft Width 60 ft
Elevation 545 ft Threshold 0 ft Heading 327
Runway 14R Length 6499 ft width 148 ft
Elevation 560 ft Threshold 0 ft Heading 146
Runway 32L Length 6499 ft Width 148 ft
Elevation 548 ft Threshold 0 ft Heading 326
Runway 18 Length 2264 ft width 60 ft
Elevation 0 ft Threshold 0 ft Heading 196
Runway 36 Length 2264 ft Width 60 ft
Elevation 0 ft Threshold 0 ft Heading 16
Airport Frequencies
Type ATIS Name ATIS Frequency 112.6 MHZ
Type CTAF Name CTAF Frequency 118.7 MHZ
Type FSS Name MELBOURNE Frequency 126.5 MHZ
Type TWR Name TWR Frequency 118.7 MHZ
Airport Navaids
Type VOR-DME Name Launceston Frequency 112600 KHZ
Type NDB Name Launceston Frequency 242 KHZ
Type NDB Name Nile Frequency 230 KHZ
Airport Weather Information & NOTAM
ADDS - METARS form results

(0456 UTC 18 October 2019)
Data provider http://aviationweather.gov/metar/data/
 
METAR text: YMLT 180435Z AUTO 34025G35KT 6000 -SHRA BKN013 OVC017 10/08 Q1001
Conditions at: YMLT (LAUNCESTON AIRPO, AU) observed 0435 UTC 18 October 2019
Temperature: 10.0°C (50°F)
Dewpoint: 8.0°C (46°F) [RH = 87%]
Pressure (altimeter): 29.56 inches Hg (1001.0 mb)
Winds: from the NNW (340 degrees) at 29 MPH (25 knots; 12.9 m/s)
gusting to 40 MPH (35 knots; 18.0 m/s)
Visibility: 4 miles ( 6 km)
Ceiling: 1300 feet AGL
Clouds: broken clouds at 1300 feet AGL
overcast cloud deck at 1700 feet AGL
Weather: -SHRA  (light rain showers)

METAR text: YMLT 180430Z AUTO 34025KT 6000 -SHRA BKN013 OVC017 11/09 Q1002
Conditions at: YMLT (LAUNCESTON AIRPO, AU) observed 0430 UTC 18 October 2019
Temperature: 11.0°C (52°F)
Dewpoint: 9.0°C (48°F) [RH = 87%]
Pressure (altimeter): 29.59 inches Hg (1002.0 mb)
Winds: from the NNW (340 degrees) at 29 MPH (25 knots; 12.9 m/s)
Visibility: 4 miles ( 6 km)
Ceiling: 1300 feet AGL
Clouds: broken clouds at 1300 feet AGL
overcast cloud deck at 1700 feet AGL
Weather: -SHRA  (light rain showers)

METAR text: YMLT 180401Z AUTO 34025G35KT 5000 -SHRA BKN013 BKN022 OVC026 10/08 Q1002
Conditions at: YMLT (LAUNCESTON AIRPO, AU) observed 0401 UTC 18 October 2019
Temperature: 10.0°C (50°F)
Dewpoint: 8.0°C (46°F) [RH = 87%]
Pressure (altimeter): 29.59 inches Hg (1002.0 mb)
Winds: from the NNW (340 degrees) at 29 MPH (25 knots; 12.9 m/s)
gusting to 40 MPH (35 knots; 18.0 m/s)
Visibility: 3 miles ( 5 km)
Ceiling: 1300 feet AGL
Clouds: broken clouds at 1300 feet AGL
broken clouds at 2200 feet AGL
overcast cloud deck at 2600 feet AGL
Weather: -SHRA  (light rain showers)

METAR text: YMLT 180400Z AUTO 34025KT 5000 -SHRA BKN013 OVC022 10/09 Q1002
Conditions at: YMLT (LAUNCESTON AIRPO, AU) observed 0400 UTC 18 October 2019
Temperature: 10.0°C (50°F)
Dewpoint: 9.0°C (48°F) [RH = 93%]
Pressure (altimeter): 29.59 inches Hg (1002.0 mb)
Winds: from the NNW (340 degrees) at 29 MPH (25 knots; 12.9 m/s)
Visibility: 3 miles ( 5 km)
Ceiling: 1300 feet AGL
Clouds: broken clouds at 1300 feet AGL
overcast cloud deck at 2200 feet AGL
Weather: -SHRA  (light rain showers)

Forecast for: AMD
Text: TAF AMD YMLT 180403Z 1804/1824 34025G35KT 9999 -SHRA SCT015 BKN025
Forecast period: 0400 to 0800 UTC 18 October 2019
Forecast type: FROM: standard forecast or significant change
Winds: from the NNW (340 degrees) at 29 MPH (25 knots; 12.9 m/s)
gusting to 40 MPH (35 knots; 18.0 m/s)
Visibility: 6 or more miles 10+ km)
Ceiling: 2500 feet AGL
Clouds: scattered clouds at 1500 feet AGL
broken clouds at 2500 feet AGL
Weather: -SHRA  (light rain showers)
Text: FM180800 33020G30KT 9999 -SHRA SCT015
Forecast period: 0800 to 1100 UTC 18 October 2019
Forecast type: FROM: standard forecast or significant change
Winds: from the NNW (330 degrees) at 23 MPH (20 knots; 10.3 m/s)
gusting to 34 MPH (30 knots; 15.4 m/s)
Visibility: 6 or more miles 10+ km)
Ceiling: at least 12,000 feet AGL
Clouds: scattered clouds at 1500 feet AGL
Weather: -SHRA  (light rain showers)
Text: FM181100 33014KT 9999 FEW025
Forecast period: 1100 to 2200 UTC 18 October 2019
Forecast type: FROM: standard forecast or significant change
Winds: from the NNW (330 degrees) at 16 MPH (14 knots; 7.2 m/s)
Visibility: 6 or more miles 10+ km)
Ceiling: at least 12,000 feet AGL
Clouds: few clouds at 2500 feet AGL
Weather: no significant weather forecast for this period
Text: FM182200 31015KT 9999 SCT025 INTER 1804/1808 4000 SHRA FEW005 BKN010
Forecast period: 2200 UTC 18 October 2019 to 0000 UTC 19 October 2019
Forecast type: FROM: standard forecast or significant change
Winds: from the NW (310 degrees) at 17 MPH (15 knots; 7.7 m/s)
Visibility: 6 or more miles 10+ km)
Ceiling: at least 12,000 feet AGL
Clouds: scattered clouds at 2500 feet AGL
Weather: no significant weather forecast for this period
Text:
Forecast period: 0400 to 0800 UTC 18 October 2019
Forecast type: TEMPORARY: The following changes expected for less than half the time period
Visibility: 2.49 miles (4.01 km)
Ceiling: 1000 feet AGL
Clouds: few clouds at 500 feet AGL
broken clouds at 1000 feet AGL
Weather: SHRA  (rain showers)

Contacts Infinite Flight LiveFlight Admin Panel 

© Qantas Virtual Group